createdAt,value
2019-03-12T00:00:33.156Z,2.00
2019-03-12T00:01:46.382Z,2.47
2019-03-12T00:03:00.001Z,2.67
2019-03-12T00:04:13.226Z,2.05
2019-03-12T00:05:26.681Z,2.10
2019-03-12T00:06:40.144Z,2.25
2019-03-12T00:07:53.368Z,3.30
2019-03-12T00:09:06.605Z,1.85
2019-03-12T00:10:19.826Z,2.25
2019-03-12T00:11:33.041Z,2.30
2019-03-12T00:12:46.256Z,2.35
2019-03-12T00:13:59.492Z,2.37
2019-03-12T00:15:12.705Z,1.80
2019-03-12T00:16:25.929Z,2.17
2019-03-12T00:17:39.148Z,2.27
2019-03-12T00:18:52.379Z,2.10
2019-03-12T00:20:06.742Z,1.90
2019-03-12T00:21:19.961Z,1.98
2019-03-12T00:22:33.170Z,2.12
2019-03-12T00:23:46.394Z,1.98
2019-03-12T00:24:59.934Z,1.82
2019-03-12T00:26:13.172Z,2.08
2019-03-12T00:27:26.398Z,1.72
2019-03-12T00:28:39.633Z,2.35
2019-03-12T00:29:52.849Z,2.15
2019-03-12T00:31:06.066Z,1.90
2019-03-12T00:32:19.281Z,2.17
2019-03-12T00:33:32.529Z,2.35
2019-03-12T00:34:45.745Z,2.35
2019-03-12T00:35:58.968Z,1.92
2019-03-12T00:37:12.197Z,2.47
2019-03-12T00:38:25.467Z,2.20
2019-03-12T00:39:38.718Z,2.62
2019-03-12T00:40:51.948Z,2.47
2019-03-12T00:42:05.171Z,2.33
2019-03-12T00:43:18.381Z,1.95
2019-03-12T00:44:31.921Z,1.85
2019-03-12T00:45:45.138Z,1.90
2019-03-12T00:46:58.363Z,2.27
2019-03-12T00:48:11.588Z,2.12
2019-03-12T00:49:25.838Z,2.35
2019-03-12T00:50:39.056Z,2.02
2019-03-12T00:51:53.460Z,1.98
2019-03-12T00:53:06.682Z,1.92
2019-03-12T00:54:19.912Z,2.72
2019-03-12T00:55:33.132Z,2.02
2019-03-12T00:56:46.641Z,2.08
2019-03-12T00:57:59.867Z,1.98
2019-03-12T00:59:13.104Z,2.37
2019-03-12T01:00:26.317Z,1.70
2019-03-12T01:01:39.545Z,1.95
2019-03-12T01:02:53.333Z,1.95
2019-03-12T01:04:06.554Z,2.30
2019-03-12T01:05:19.777Z,2.17
2019-03-12T01:06:33.396Z,2.22
2019-03-12T01:07:46.623Z,2.25
2019-03-12T01:08:59.860Z,2.10
2019-03-12T01:10:16.225Z,2.05
2019-03-12T01:11:29.510Z,2.98
2019-03-12T01:12:43.068Z,2.22
2019-03-12T01:13:56.302Z,2.55
2019-03-12T01:15:11.355Z,1.70
2019-03-12T01:16:24.580Z,1.85
2019-03-12T01:17:37.803Z,2.00
2019-03-12T01:18:51.032Z,2.00
2019-03-12T01:20:07.244Z,2.40
2019-03-12T01:21:20.459Z,2.00
2019-03-12T01:22:33.681Z,1.60
2019-03-12T01:23:47.966Z,3.05
2019-03-12T01:25:01.383Z,2.47
2019-03-12T01:26:14.604Z,2.15
2019-03-12T01:27:27.829Z,2.40
2019-03-12T01:28:41.047Z,2.37
2019-03-12T01:29:54.266Z,2.90
2019-03-12T01:31:07.485Z,2.22
2019-03-12T01:32:20.705Z,2.25
2019-03-12T01:33:33.923Z,2.00
2019-03-12T01:34:47.154Z,2.20
2019-03-12T01:36:00.373Z,1.70
2019-03-12T01:37:13.624Z,1.98
2019-03-12T01:38:26.841Z,1.98
2019-03-12T01:39:40.072Z,2.02
2019-03-12T01:40:53.293Z,2.80
2019-03-12T01:42:06.508Z,2.17
2019-03-12T01:43:19.735Z,2.60
2019-03-12T01:44:33.371Z,2.50
2019-03-12T01:45:46.585Z,2.55
2019-03-12T01:46:59.801Z,2.37
2019-03-12T01:48:13.020Z,2.30
2019-03-12T01:49:26.241Z,2.87
2019-03-12T01:50:39.473Z,2.50
2019-03-12T01:51:52.688Z,2.87
2019-03-12T01:53:05.911Z,2.27
2019-03-12T01:54:20.248Z,2.33
2019-03-12T01:55:33.840Z,2.37
2019-03-12T01:56:47.068Z,2.33
2019-03-12T01:58:00.286Z,2.47
2019-03-12T01:59:13.501Z,2.12
2019-03-12T02:00:26.732Z,2.67
2019-03-12T02:01:39.960Z,1.85
2019-03-12T02:02:53.182Z,2.98
2019-03-12T02:04:06.393Z,2.35
2019-03-12T02:05:19.617Z,2.37
2019-03-12T02:06:32.850Z,2.35
2019-03-12T02:07:46.146Z,2.33
2019-03-12T02:08:59.349Z,2.60
2019-03-12T02:10:13.502Z,2.52
2019-03-12T02:11:26.717Z,2.47
2019-03-12T02:12:39.960Z,2.37
2019-03-12T02:13:53.172Z,2.80
2019-03-12T02:15:11.585Z,2.70
2019-03-12T02:16:24.860Z,2.65
2019-03-12T02:17:38.134Z,2.75
2019-03-12T02:18:51.415Z,2.30
2019-03-12T02:20:07.266Z,2.55
2019-03-12T02:21:20.955Z,3.35
2019-03-12T02:22:34.173Z,3.08
2019-03-12T02:23:47.581Z,2.60
2019-03-12T02:25:00.862Z,2.50
2019-03-12T02:26:14.497Z,2.70
2019-03-12T02:27:27.734Z,3.20
2019-03-12T02:28:40.959Z,2.52
2019-03-12T02:29:54.183Z,2.45
2019-03-12T02:31:07.412Z,2.83
2019-03-12T02:32:20.866Z,2.40
2019-03-12T02:33:34.093Z,2.08
2019-03-12T02:34:47.320Z,2.62
2019-03-12T02:36:00.739Z,2.40
2019-03-12T02:37:13.969Z,2.52
2019-03-12T02:38:27.185Z,2.67
2019-03-12T02:39:40.422Z,2.37
2019-03-12T02:40:53.653Z,2.22
2019-03-12T02:42:06.904Z,3.83
2019-03-12T02:43:20.118Z,2.77
2019-03-12T02:44:33.334Z,2.75
2019-03-12T02:45:46.551Z,2.37
2019-03-12T02:46:59.773Z,2.83
2019-03-12T02:48:12.997Z,2.42
2019-03-12T02:49:26.222Z,2.52
2019-03-12T02:50:39.441Z,2.90
2019-03-12T02:51:52.664Z,2.47
2019-03-12T02:53:05.893Z,2.33
2019-03-12T02:54:19.109Z,2.75
2019-03-12T02:55:32.729Z,2.87
2019-03-12T02:56:45.950Z,2.35
2019-03-12T02:57:59.175Z,3.12
2019-03-12T02:59:13.386Z,2.70
2019-03-12T03:00:26.789Z,2.87
2019-03-12T03:01:40.348Z,3.00
2019-03-12T03:02:53.565Z,3.30
2019-03-12T03:04:06.812Z,3.00
2019-03-12T03:05:20.037Z,2.65
2019-03-12T03:06:37.546Z,2.70
2019-03-12T03:08:01.139Z,2.25
2019-03-12T03:09:14.513Z,2.33
2019-03-12T03:10:27.733Z,2.65
2019-03-12T03:11:40.947Z,2.40
2019-03-12T03:12:54.161Z,2.72
2019-03-12T03:14:10.632Z,2.75
2019-03-12T03:15:31.140Z,2.72
2019-03-12T03:16:44.361Z,2.40
2019-03-12T03:17:57.570Z,2.98
2019-03-12T03:19:10.969Z,2.83
2019-03-12T03:20:24.189Z,2.30
2019-03-12T03:21:39.753Z,2.90
2019-03-12T03:22:52.978Z,2.62
2019-03-12T03:24:06.190Z,2.90
2019-03-12T03:25:19.407Z,2.37
2019-03-12T03:26:32.853Z,2.37
2019-03-12T03:27:46.069Z,2.92
2019-03-12T03:28:59.318Z,2.65
2019-03-12T03:30:21.711Z,3.17
2019-03-12T03:31:34.941Z,2.30
2019-03-12T03:32:48.243Z,2.80
2019-03-12T03:34:01.503Z,2.20
2019-03-12T03:35:15.091Z,3.17
2019-03-12T03:36:28.299Z,2.60
2019-03-12T03:37:41.517Z,2.58
2019-03-12T03:38:54.742Z,2.47
2019-03-12T03:40:07.965Z,2.45
2019-03-12T03:41:21.186Z,2.62
2019-03-12T03:42:34.412Z,2.47
2019-03-12T03:43:47.640Z,3.00
2019-03-12T03:45:00.866Z,2.30
2019-03-12T03:46:14.093Z,2.47
2019-03-12T03:47:27.310Z,2.47
2019-03-12T03:48:40.525Z,2.65
2019-03-12T03:49:53.926Z,2.42
2019-03-12T03:51:07.150Z,2.62
2019-03-12T03:52:20.369Z,3.02
2019-03-12T03:53:33.599Z,2.52
2019-03-12T03:54:47.073Z,2.65
2019-03-12T03:56:00.318Z,2.90
2019-03-12T03:57:14.008Z,2.75
2019-03-12T03:58:28.446Z,2.55
2019-03-12T03:59:41.960Z,2.77
2019-03-12T04:00:55.201Z,2.47
2019-03-12T04:02:08.438Z,3.75
2019-03-12T04:03:21.720Z,2.83
2019-03-12T04:04:34.941Z,3.15
2019-03-12T04:05:48.580Z,3.25
2019-03-12T04:07:02.376Z,2.65
2019-03-12T04:08:15.595Z,2.60
2019-03-12T04:09:28.817Z,3.67
2019-03-12T04:10:42.982Z,2.60
2019-03-12T04:11:56.202Z,2.87
2019-03-12T04:13:09.428Z,3.65
2019-03-12T04:14:22.638Z,2.60
2019-03-12T04:15:35.851Z,2.40
2019-03-12T04:16:49.095Z,2.70
2019-03-12T04:18:02.307Z,3.75
2019-03-12T04:19:15.527Z,2.25
2019-03-12T04:20:28.745Z,3.35
2019-03-12T04:21:42.221Z,2.85
2019-03-12T04:22:55.438Z,3.40
2019-03-12T04:24:08.673Z,2.90
2019-03-12T04:25:21.893Z,2.75
2019-03-12T04:26:35.107Z,3.02
2019-03-12T04:27:48.336Z,3.17
2019-03-12T04:29:01.570Z,3.35
2019-03-12T04:30:20.800Z,3.60
2019-03-12T04:31:34.304Z,2.80
2019-03-12T04:32:47.533Z,3.15
2019-03-12T04:34:04.005Z,2.80
2019-03-12T04:35:23.350Z,2.90
2019-03-12T04:36:36.577Z,3.00
2019-03-12T04:37:49.807Z,2.77
2019-03-12T04:39:04.601Z,2.80
2019-03-12T04:40:18.093Z,2.55
2019-03-12T04:41:31.340Z,2.85
2019-03-12T04:42:44.555Z,3.52
2019-03-12T04:43:57.769Z,2.47
2019-03-12T04:45:15.850Z,3.50
2019-03-12T04:46:29.291Z,3.08
2019-03-12T04:47:44.163Z,3.00
2019-03-12T04:48:57.849Z,2.58
2019-03-12T04:50:11.061Z,3.17
2019-03-12T04:51:24.297Z,2.83
2019-03-12T04:52:37.524Z,3.35
2019-03-12T04:53:52.396Z,3.27
2019-03-12T04:55:08.432Z,2.58
2019-03-12T04:56:21.632Z,2.98
2019-03-12T04:57:34.853Z,3.02
2019-03-12T04:58:48.125Z,3.00
2019-03-12T05:00:01.337Z,2.58
2019-03-12T05:01:14.557Z,2.80
2019-03-12T05:02:27.769Z,3.08
2019-03-12T05:03:41.017Z,3.17
2019-03-12T05:04:54.253Z,2.55
2019-03-12T05:06:07.469Z,3.17
2019-03-12T05:07:20.690Z,3.10
2019-03-12T05:08:33.923Z,3.12
2019-03-12T05:09:47.156Z,3.27
2019-03-12T05:11:00.797Z,2.92
2019-03-12T05:12:14.010Z,2.80
2019-03-12T05:13:27.228Z,2.98
2019-03-12T05:14:40.445Z,3.45
2019-03-12T05:15:53.680Z,3.12
2019-03-12T05:17:06.973Z,2.70
2019-03-12T05:18:21.431Z,3.80
2019-03-12T05:19:34.645Z,3.10
2019-03-12T05:20:48.064Z,2.22
2019-03-12T05:22:01.294Z,2.67
2019-03-12T05:23:14.515Z,2.45
2019-03-12T05:24:27.737Z,3.10
2019-03-12T05:25:40.952Z,3.02
2019-03-12T05:26:54.237Z,3.05
2019-03-12T05:28:07.502Z,3.00
2019-03-12T05:29:20.712Z,2.95
2019-03-12T05:30:33.957Z,2.83
2019-03-12T05:31:47.185Z,3.15
2019-03-12T05:33:00.744Z,3.00
2019-03-12T05:34:13.965Z,2.87
2019-03-12T05:35:27.247Z,3.20
2019-03-12T05:36:40.892Z,3.20
2019-03-12T05:37:54.129Z,2.85
2019-03-12T05:39:07.345Z,2.85
2019-03-12T05:40:20.587Z,2.77
2019-03-12T05:41:33.796Z,2.62
2019-03-12T05:42:47.012Z,2.87
2019-03-12T05:44:00.493Z,2.83
2019-03-12T05:45:14.960Z,3.02
2019-03-12T05:46:28.182Z,2.90
2019-03-12T05:47:41.399Z,2.70
2019-03-12T05:48:54.625Z,3.15
2019-03-12T05:50:14.900Z,3.42
2019-03-12T05:51:28.113Z,2.75
2019-03-12T05:52:41.424Z,2.55
2019-03-12T05:53:54.640Z,2.75
2019-03-12T05:55:09.095Z,2.83
2019-03-12T05:56:22.324Z,2.65
2019-03-12T05:57:35.545Z,3.17
2019-03-12T05:58:48.769Z,3.10
2019-03-12T06:00:01.997Z,2.92
2019-03-12T06:01:15.276Z,2.87
2019-03-12T06:02:28.513Z,3.85
2019-03-12T06:03:41.737Z,3.35
2019-03-12T06:04:54.973Z,3.22
2019-03-12T06:06:08.205Z,2.80
2019-03-12T06:07:21.562Z,2.80
2019-03-12T06:08:35.404Z,2.87
2019-03-12T06:09:48.620Z,2.90
2019-03-12T06:11:01.849Z,2.92
2019-03-12T06:12:15.067Z,2.80
2019-03-12T06:13:28.529Z,3.15
2019-03-12T06:14:41.774Z,3.52
2019-03-12T06:15:55.065Z,2.58
2019-03-12T06:17:08.303Z,3.08
2019-03-12T06:18:21.521Z,3.50
2019-03-12T06:19:34.738Z,2.90
2019-03-12T06:20:47.961Z,2.60
2019-03-12T06:22:01.178Z,3.47
2019-03-12T06:23:15.419Z,2.85
2019-03-12T06:24:28.692Z,2.85
2019-03-12T06:25:41.917Z,3.37
2019-03-12T06:26:55.142Z,3.00
2019-03-12T06:28:08.394Z,2.98
2019-03-12T06:29:22.396Z,2.90
2019-03-12T06:30:37.274Z,2.40
2019-03-12T06:31:58.232Z,2.90
2019-03-12T06:33:16.076Z,2.70
2019-03-12T06:34:30.955Z,3.22
2019-03-12T06:35:45.805Z,3.10
2019-03-12T06:37:03.738Z,3.02
2019-03-12T06:38:18.593Z,3.08
2019-03-12T06:39:33.453Z,3.30
2019-03-12T06:40:57.316Z,3.22
2019-03-12T06:42:14.909Z,3.00
2019-03-12T06:43:29.769Z,3.40
2019-03-12T06:45:00.924Z,2.62
2019-03-12T06:46:15.790Z,2.58
2019-03-12T06:47:46.708Z,2.90
2019-03-12T06:49:04.481Z,2.83
2019-03-12T06:50:19.353Z,3.02
2019-03-12T06:51:49.062Z,3.40
2019-03-12T06:53:12.660Z,2.87
2019-03-12T06:54:34.311Z,3.20
2019-03-12T06:55:49.273Z,2.75
2019-03-12T06:57:10.090Z,2.70
2019-03-12T06:58:27.913Z,3.00
2019-03-12T06:59:54.630Z,2.98
2019-03-12T07:01:12.141Z,2.87
2019-03-12T07:02:34.169Z,3.00
2019-03-12T07:03:51.574Z,2.92
2019-03-12T07:05:15.987Z,2.98
2019-03-12T07:06:30.840Z,3.12
2019-03-12T07:07:54.546Z,3.00
2019-03-12T07:09:18.030Z,3.58
2019-03-12T07:10:41.634Z,2.92
2019-03-12T07:11:56.496Z,2.87
2019-03-12T07:13:11.355Z,2.72
2019-03-12T07:14:28.946Z,3.90
2019-03-12T07:15:46.257Z,3.27
2019-03-12T07:17:07.024Z,3.22
2019-03-12T07:18:30.745Z,2.83
2019-03-12T07:20:01.519Z,3.20
2019-03-12T07:21:32.366Z,3.02
2019-03-12T07:23:03.755Z,2.65
2019-03-12T07:24:24.336Z,3.00
2019-03-12T07:25:42.181Z,2.83
2019-03-12T07:26:57.130Z,3.67
2019-03-12T07:28:17.754Z,3.37
2019-03-12T07:29:32.805Z,3.22
2019-03-12T07:30:47.679Z,4.10
2019-03-12T07:32:09.918Z,3.77
2019-03-12T07:34:18.107Z,2.85
2019-03-12T07:35:49.511Z,3.60
2019-03-12T07:38:42.961Z,4.00
2019-03-12T07:40:09.416Z,3.70
2019-03-12T07:41:36.298Z,3.40
2019-03-12T07:42:54.125Z,3.42
2019-03-12T07:44:14.959Z,3.15
2019-03-12T07:45:30.221Z,2.60
2019-03-12T07:46:50.770Z,3.25
2019-03-12T07:48:21.683Z,3.05
2019-03-12T07:49:53.810Z,2.83
2019-03-12T07:51:11.324Z,3.20
2019-03-12T07:52:29.157Z,3.70
2019-03-12T07:53:44.029Z,3.50
2019-03-12T07:54:58.906Z,4.15
2019-03-12T07:56:19.806Z,3.25
2019-03-12T07:57:40.753Z,2.77
2019-03-12T07:58:58.469Z,3.25
2019-03-12T08:00:13.518Z,3.40
2019-03-12T08:01:40.322Z,3.95
2019-03-12T08:02:55.200Z,3.50
2019-03-12T08:04:10.075Z,3.52
2019-03-12T08:05:30.697Z,3.00
2019-03-12T08:06:51.551Z,2.75
2019-03-12T08:08:21.314Z,3.08
2019-03-12T08:09:49.794Z,2.67
2019-03-12T08:11:07.345Z,2.90
2019-03-12T08:12:27.954Z,2.40
2019-03-12T08:13:59.843Z,2.77
2019-03-12T08:15:23.167Z,2.67
2019-03-12T08:16:34.264Z,2.83
2019-03-12T08:18:07.308Z,3.67
2019-03-12T08:19:38.215Z,2.90
2019-03-12T08:20:55.765Z,2.62
2019-03-12T08:22:10.660Z,3.17
2019-03-12T08:23:41.758Z,2.83
2019-03-12T08:24:59.465Z,2.50
2019-03-12T08:26:14.333Z,2.92
2019-03-12T08:27:35.261Z,3.22
2019-03-12T08:28:55.873Z,2.60
2019-03-12T08:30:28.516Z,2.55
2019-03-12T08:31:52.499Z,3.00
2019-03-12T08:33:16.069Z,2.45
2019-03-12T08:34:33.710Z,2.60
2019-03-12T08:35:48.573Z,2.75
2019-03-12T08:37:18.371Z,3.00
2019-03-12T08:38:33.233Z,3.00
2019-03-12T08:39:51.065Z,2.77
2019-03-12T08:41:12.122Z,2.60
2019-03-12T08:42:54.130Z,2.62
2019-03-12T08:43:59.612Z,3.33
2019-03-12T08:45:32.756Z,2.67
2019-03-12T08:47:04.542Z,2.40
2019-03-12T08:48:22.362Z,3.30
2019-03-12T08:49:43.201Z,3.25
2019-03-12T08:51:09.745Z,2.62
2019-03-12T08:52:24.630Z,2.67
2019-03-12T08:53:48.197Z,3.15
2019-03-12T08:55:04.264Z,3.00
2019-03-12T08:56:23.671Z,2.87
2019-03-12T08:57:38.529Z,2.55
2019-03-12T08:58:56.106Z,3.10
2019-03-12T09:00:12.542Z,2.70
2019-03-12T09:01:47.063Z,2.95
2019-03-12T09:04:47.977Z,2.92
2019-03-12T09:06:05.817Z,3.50
2019-03-12T09:07:22.735Z,2.42
2019-03-12T09:08:46.365Z,2.85
2019-03-12T09:10:06.974Z,3.17
2019-03-12T09:11:21.852Z,2.98
2019-03-12T09:12:39.668Z,2.80
2019-03-12T09:14:04.071Z,2.67
2019-03-12T09:15:18.933Z,3.58
2019-03-12T09:16:33.889Z,3.22
2019-03-12T09:18:05.104Z,2.77
2019-03-12T09:19:26.017Z,3.25
2019-03-12T09:20:59.062Z,3.02
2019-03-12T09:22:13.947Z,2.50
2019-03-12T09:23:34.586Z,2.47
2019-03-12T09:24:52.206Z,2.47
2019-03-12T09:26:10.186Z,2.67
2019-03-12T09:27:26.416Z,2.47
2019-03-12T09:28:41.314Z,1.90
2019-03-12T09:30:11.306Z,2.45
2019-03-12T09:31:34.607Z,2.10
2019-03-12T09:32:51.946Z,2.40
2019-03-12T09:34:22.617Z,2.40
2019-03-12T09:35:43.426Z,2.20
2019-03-12T09:37:07.095Z,2.17
2019-03-12T09:38:27.787Z,2.50
2019-03-12T09:39:51.638Z,1.87
2019-03-12T09:41:10.425Z,2.30
2019-03-12T09:42:30.948Z,2.33
2019-03-12T09:43:54.864Z,2.63
2019-03-12T09:45:10.682Z,2.45
2019-03-12T09:46:41.805Z,2.00
2019-03-12T09:48:12.842Z,1.90
2019-03-12T09:49:42.556Z,1.47
2019-03-12T09:51:09.477Z,3.22
2019-03-12T09:52:36.433Z,2.40
2019-03-12T09:54:07.280Z,2.00
2019-03-12T09:55:22.145Z,2.10
2019-03-12T09:56:49.134Z,2.05
2019-03-12T09:58:06.700Z,2.47
2019-03-12T09:59:27.541Z,2.40
2019-03-12T10:00:42.405Z,2.02
2019-03-12T10:02:14.665Z,2.12
2019-03-12T10:03:29.534Z,1.50
2019-03-12T10:04:59.489Z,1.72
2019-03-12T10:06:14.343Z,1.85
2019-03-12T10:07:32.009Z,1.60
2019-03-12T10:08:52.680Z,2.55
2019-03-12T10:10:16.097Z,2.02
2019-03-12T10:11:30.953Z,2.10
2019-03-12T10:13:02.104Z,2.12
2019-03-12T10:14:16.957Z,1.75
2019-03-12T10:15:48.138Z,1.50
2019-03-12T10:17:06.981Z,1.15
2019-03-12T10:18:22.085Z,2.00
2019-03-12T10:19:39.597Z,1.50
2019-03-12T10:20:57.126Z,1.70
2019-03-12T10:22:14.406Z,2.10
2019-03-12T10:23:31.962Z,1.80
2019-03-12T10:24:52.793Z,1.80
2019-03-12T10:26:07.665Z,1.62
2019-03-12T10:27:22.532Z,1.60
2019-03-12T10:28:40.202Z,1.45
2019-03-12T10:30:06.986Z,1.65
2019-03-12T10:31:24.782Z,2.27
2019-03-12T10:32:51.441Z,1.57
2019-03-12T10:34:12.157Z,1.50
2019-03-12T10:35:29.793Z,1.20
2019-03-12T10:36:50.443Z,2.80
2019-03-12T10:38:41.405Z,1.60
2019-03-12T10:40:15.992Z,1.72
2019-03-12T10:41:30.853Z,1.87
2019-03-12T10:42:59.185Z,2.20
2019-03-12T10:44:25.897Z,1.87
2019-03-12T10:45:46.730Z,2.05
2019-03-12T10:47:01.602Z,2.08
2019-03-12T10:48:16.457Z,3.58
2019-03-12T10:49:37.366Z,2.12
2019-03-12T10:50:44.634Z,2.92
2019-03-12T10:51:57.869Z,2.55
2019-03-12T10:53:12.173Z,1.82
2019-03-12T10:54:26.662Z,1.85
2019-03-12T10:55:43.145Z,1.52
2019-03-12T10:56:57.586Z,1.47
2019-03-12T10:58:10.814Z,1.62
2019-03-12T10:59:25.663Z,1.40
2019-03-12T11:00:39.186Z,1.27
2019-03-12T11:01:54.041Z,1.17
2019-03-12T11:03:07.756Z,1.42
2019-03-12T11:04:20.986Z,1.50
2019-03-12T11:05:45.388Z,1.52
2019-03-12T11:06:49.257Z,1.90
2019-03-12T11:08:02.480Z,1.50
2019-03-12T11:09:15.701Z,1.60
2019-03-12T11:10:28.917Z,1.35
2019-03-12T11:11:42.149Z,1.82
2019-03-12T11:12:55.366Z,1.65
2019-03-12T11:14:08.598Z,1.55
2019-03-12T11:15:21.819Z,1.82
2019-03-12T11:16:35.041Z,1.77
2019-03-12T11:17:50.026Z,2.10
2019-03-12T11:19:03.210Z,1.75
2019-03-12T11:20:24.541Z,1.47
2019-03-12T11:21:37.766Z,1.60
2019-03-12T11:22:51.011Z,1.60
2019-03-12T11:24:04.297Z,1.60
2019-03-12T11:25:27.323Z,1.80
2019-03-12T11:26:32.492Z,1.67
2019-03-12T11:27:45.711Z,1.70
2019-03-12T11:28:58.937Z,1.45
2019-03-12T11:30:16.392Z,1.27
2019-03-12T11:31:29.609Z,1.50
2019-03-12T11:32:42.845Z,1.30
2019-03-12T11:33:56.090Z,2.08
2019-03-12T11:35:09.845Z,1.60
2019-03-12T11:36:24.039Z,1.27
2019-03-12T11:37:37.328Z,1.12
2019-03-12T11:38:50.577Z,1.17
2019-03-12T11:40:22.884Z,1.20
2019-03-12T11:41:36.183Z,1.30
2019-03-12T11:42:49.482Z,1.40
2019-03-12T11:44:02.706Z,1.15
2019-03-12T11:45:18.435Z,1.60
2019-03-12T11:46:41.975Z,1.98
2019-03-12T11:47:45.952Z,1.50
2019-03-12T11:48:59.185Z,1.65
2019-03-12T11:50:23.128Z,1.40
2019-03-12T11:51:36.404Z,0.90
2019-03-12T11:52:55.662Z,1.77
2019-03-12T11:54:04.582Z,1.30
2019-03-12T11:55:17.906Z,1.60
2019-03-12T11:56:31.180Z,2.45
2019-03-12T11:57:44.523Z,1.42
2019-03-12T11:58:57.743Z,0.80
2019-03-12T12:00:19.267Z,1.17
2019-03-12T12:01:30.626Z,1.32
2019-03-12T12:02:43.852Z,0.93
2019-03-12T12:03:57.073Z,1.25
2019-03-12T12:05:10.325Z,1.20
2019-03-12T12:06:24.552Z,1.47
2019-03-12T12:07:37.767Z,1.30
2019-03-12T12:08:52.670Z,1.20
2019-03-12T12:10:09.145Z,1.30
2019-03-12T12:11:22.377Z,1.35
2019-03-12T12:12:35.605Z,1.70
2019-03-12T12:13:48.835Z,1.10
2019-03-12T12:15:02.065Z,0.95
2019-03-12T12:16:15.307Z,1.12
2019-03-12T12:17:28.769Z,1.20
2019-03-12T12:18:42.003Z,1.10
2019-03-12T12:19:55.225Z,1.22
2019-03-12T12:21:08.468Z,1.32
2019-03-12T12:22:22.844Z,0.95
2019-03-12T12:23:36.081Z,1.27
2019-03-12T12:24:49.318Z,1.12
2019-03-12T12:26:02.530Z,1.30
2019-03-12T12:27:20.494Z,1.57
2019-03-12T12:28:33.725Z,1.67
2019-03-12T12:29:46.962Z,0.85
2019-03-12T12:31:00.156Z,0.98
2019-03-12T12:32:13.659Z,1.10
2019-03-12T12:33:28.036Z,1.00
2019-03-12T12:34:41.266Z,0.95
2019-03-12T12:35:55.048Z,0.95
2019-03-12T12:37:08.275Z,1.00
2019-03-12T12:38:21.509Z,1.10
2019-03-12T12:39:34.729Z,1.00
2019-03-12T12:40:48.686Z,0.72
2019-03-12T12:42:02.148Z,1.07
2019-03-12T12:43:15.377Z,0.98
2019-03-12T12:44:30.251Z,1.15
2019-03-12T12:45:43.523Z,0.80
2019-03-12T12:46:56.785Z,1.10
2019-03-12T12:48:10.013Z,1.07
2019-03-12T12:49:23.507Z,1.20
2019-03-12T12:50:36.745Z,1.12
2019-03-12T12:51:50.003Z,1.05
2019-03-12T12:53:03.446Z,1.30
2019-03-12T12:54:16.697Z,1.00
2019-03-12T12:55:30.892Z,1.15
2019-03-12T12:56:45.402Z,1.12
2019-03-12T12:57:58.642Z,1.05
2019-03-12T12:59:11.875Z,0.95
2019-03-12T13:00:27.912Z,1.07
2019-03-12T13:01:41.130Z,1.72
2019-03-12T13:02:56.181Z,2.25
2019-03-12T13:04:09.407Z,1.10
2019-03-12T13:05:22.646Z,1.07
2019-03-12T13:06:36.613Z,1.10
2019-03-12T13:07:50.561Z,0.65
2019-03-12T13:09:04.735Z,1.35
2019-03-12T13:10:26.057Z,0.90
2019-03-12T13:11:39.324Z,1.10
2019-03-12T13:12:52.536Z,1.00
2019-03-12T13:14:05.759Z,0.70
2019-03-12T13:15:20.659Z,0.98
2019-03-12T13:16:35.085Z,0.95
2019-03-12T13:18:03.228Z,1.02
2019-03-12T13:19:18.558Z,1.35
2019-03-12T13:20:31.786Z,0.90
2019-03-12T13:21:45.042Z,1.12
2019-03-12T13:22:58.274Z,1.05
2019-03-12T13:24:11.969Z,1.10
2019-03-12T13:25:25.197Z,1.00
2019-03-12T13:26:39.149Z,0.72
2019-03-12T13:27:53.645Z,0.80
2019-03-12T13:29:06.888Z,0.95
2019-03-12T13:30:23.942Z,1.00
2019-03-12T13:31:37.153Z,1.10
2019-03-12T13:32:59.260Z,1.00
2019-03-12T13:34:12.470Z,0.90
2019-03-12T13:35:38.118Z,1.30
2019-03-12T13:37:05.658Z,1.05
2019-03-12T13:38:20.950Z,0.93
2019-03-12T13:39:34.498Z,1.15
2019-03-12T13:40:48.012Z,0.78
2019-03-12T13:42:01.287Z,1.20
2019-03-12T13:43:14.536Z,0.90
2019-03-12T13:44:27.823Z,1.10
2019-03-12T13:45:41.065Z,0.82
2019-03-12T13:46:55.583Z,1.32
2019-03-12T13:48:08.795Z,0.68
2019-03-12T13:49:22.030Z,0.82
2019-03-12T13:50:35.316Z,1.25
2019-03-12T13:51:48.807Z,1.02
2019-03-12T13:53:02.215Z,0.95
2019-03-12T13:54:15.561Z,0.90
2019-03-12T13:55:28.911Z,0.78
2019-03-12T13:56:42.199Z,0.98
2019-03-12T13:57:55.417Z,0.80
2019-03-12T13:59:08.660Z,0.65
2019-03-12T14:00:28.970Z,0.70
2019-03-12T14:01:42.201Z,1.15
2019-03-12T14:02:55.435Z,0.90
2019-03-12T14:04:11.030Z,0.80
2019-03-12T14:05:24.371Z,0.90
2019-03-12T14:06:37.854Z,0.55
2019-03-12T14:07:51.094Z,0.98
2019-03-12T14:09:06.596Z,0.70
2019-03-12T14:10:26.534Z,1.00
2019-03-12T14:11:39.758Z,1.07
2019-03-12T14:12:53.464Z,0.90
2019-03-12T14:14:06.687Z,0.75
2019-03-12T14:15:23.171Z,0.62
2019-03-12T14:16:36.408Z,0.70
2019-03-12T14:17:49.667Z,0.80
2019-03-12T14:19:03.134Z,0.88
2019-03-12T14:20:42.609Z,0.88
2019-03-12T14:21:55.902Z,0.65
2019-03-12T14:23:13.913Z,1.00
2019-03-12T14:24:27.140Z,0.78
2019-03-12T14:25:40.363Z,0.90
2019-03-12T14:26:55.004Z,0.95
2019-03-12T14:28:09.465Z,0.78
2019-03-12T14:29:22.685Z,0.75
2019-03-12T14:30:35.908Z,0.80
2019-03-12T14:31:49.137Z,0.93
2019-03-12T14:33:04.738Z,0.88
2019-03-12T14:34:17.978Z,1.20
2019-03-12T14:35:31.206Z,0.60
2019-03-12T14:36:44.454Z,0.80
2019-03-12T14:37:58.398Z,0.85
2019-03-12T14:39:14.602Z,0.95
2019-03-12T14:40:30.059Z,0.75
2019-03-12T14:41:43.518Z,0.75
2019-03-12T14:42:56.749Z,0.78
2019-03-12T14:44:09.980Z,0.72
2019-03-12T14:45:26.302Z,0.70
2019-03-12T14:46:39.565Z,0.45
2019-03-12T14:47:52.794Z,0.75
2019-03-12T14:49:06.030Z,0.70
2019-03-12T14:50:19.262Z,1.45
2019-03-12T14:51:38.663Z,1.30
2019-03-12T14:53:21.222Z,0.80
2019-03-12T14:54:27.773Z,0.85
2019-03-12T14:55:41.001Z,0.70
2019-03-12T14:56:54.237Z,0.60
2019-03-12T14:58:07.465Z,0.82
2019-03-12T14:59:20.704Z,0.40
2019-03-12T15:00:33.934Z,0.90
2019-03-12T15:01:48.029Z,0.60
2019-03-12T15:03:01.290Z,0.50
2019-03-12T15:04:15.814Z,0.60
2019-03-12T15:05:29.770Z,0.75
2019-03-12T15:06:44.661Z,0.50
2019-03-12T15:07:57.869Z,0.60
2019-03-12T15:09:13.017Z,0.53
2019-03-12T15:10:26.233Z,0.80
2019-03-12T15:11:50.958Z,0.60
2019-03-12T15:13:05.778Z,0.90
2019-03-12T15:14:23.482Z,0.88
2019-03-12T15:15:41.797Z,0.98
2019-03-12T15:16:53.059Z,0.62
2019-03-12T15:18:09.185Z,0.93
2019-03-12T15:19:22.417Z,0.82
2019-03-12T15:20:35.647Z,0.75
2019-03-12T15:21:48.869Z,0.82
2019-03-12T15:23:02.090Z,0.78
2019-03-12T15:24:15.325Z,0.90
2019-03-12T15:25:28.566Z,0.80
2019-03-12T15:26:42.155Z,0.72
2019-03-12T15:27:57.278Z,0.80
2019-03-12T15:29:10.593Z,1.20
2019-03-12T15:30:27.948Z,1.10
2019-03-12T15:31:41.188Z,1.65
2019-03-12T15:32:54.412Z,0.70
2019-03-12T15:34:10.038Z,0.82
2019-03-12T15:35:23.261Z,0.93
2019-03-12T15:36:36.489Z,0.82
2019-03-12T15:37:50.459Z,0.50
2019-03-12T15:39:04.700Z,0.90
2019-03-12T15:40:17.925Z,0.80
2019-03-12T15:41:32.071Z,0.93
2019-03-12T15:42:46.932Z,0.40
2019-03-12T15:44:00.402Z,0.80
2019-03-12T15:45:15.523Z,0.90
2019-03-12T15:46:29.022Z,1.00
2019-03-12T15:47:42.270Z,1.52
2019-03-12T15:48:55.477Z,0.90
2019-03-12T15:50:18.805Z,0.70
2019-03-12T15:51:31.413Z,0.50
2019-03-12T15:52:44.878Z,0.85
2019-03-12T15:53:58.345Z,0.70
2019-03-12T15:55:12.505Z,0.70
2019-03-12T15:56:26.305Z,0.50
2019-03-12T15:57:41.166Z,0.55
2019-03-12T15:58:54.405Z,1.50
2019-03-12T16:00:14.478Z,0.80
2019-03-12T16:01:27.701Z,0.70
2019-03-12T16:02:40.942Z,0.85
2019-03-12T16:03:54.161Z,0.95
2019-03-12T16:05:08.253Z,0.50
2019-03-12T16:06:21.481Z,0.70
2019-03-12T16:07:34.717Z,0.90
2019-03-12T16:08:47.959Z,0.70
2019-03-12T16:10:01.266Z,0.70
2019-03-12T16:11:16.142Z,0.82
2019-03-12T16:12:29.392Z,0.70
2019-03-12T16:13:42.621Z,0.70
2019-03-12T16:14:55.857Z,0.80
2019-03-12T16:16:09.803Z,1.00
2019-03-12T16:17:23.028Z,0.53
2019-03-12T16:18:36.261Z,0.90
2019-03-12T16:19:49.489Z,1.02
2019-03-12T16:21:02.950Z,1.27
2019-03-12T16:22:18.553Z,1.10
2019-03-12T16:23:31.774Z,0.93
2019-03-12T16:24:45.083Z,0.50
2019-03-12T16:25:58.313Z,0.70
2019-03-12T16:27:11.537Z,1.00
2019-03-12T16:28:24.790Z,0.78
2019-03-12T16:29:38.338Z,0.80
2019-03-12T16:30:51.583Z,0.78
2019-03-12T16:32:04.811Z,0.70
2019-03-12T16:33:18.292Z,0.88
2019-03-12T16:34:31.511Z,1.10
2019-03-12T16:35:44.737Z,0.80
2019-03-12T16:36:58.691Z,1.00
2019-03-12T16:38:11.918Z,1.10
2019-03-12T16:39:25.141Z,1.10
2019-03-12T16:40:38.369Z,0.88
2019-03-12T16:41:51.618Z,1.02
2019-03-12T16:43:05.813Z,0.70
2019-03-12T16:44:19.092Z,0.90
2019-03-12T16:45:32.563Z,1.30
2019-03-12T16:46:45.802Z,1.00
2019-03-12T16:47:59.034Z,0.80
2019-03-12T16:49:15.682Z,1.15
2019-03-12T16:50:29.633Z,1.05
2019-03-12T16:51:42.865Z,0.93